sensor_id;sensor_type;location;lat;lon;timestamp;temperature;humidity
20459;DHT22;10388;52.314;7.938;2022-12-13T00:02:13;-5.10;99.90
20459;DHT22;10388;52.314;7.938;2022-12-13T00:04:43;-5.20;99.90
20459;DHT22;10388;52.314;7.938;2022-12-13T00:07:14;-5.20;99.90
20459;DHT22;10388;52.314;7.938;2022-12-13T00:09:44;-5.20;99.90
20459;DHT22;10388;52.314;7.938;2022-12-13T00:12:15;-5.20;99.90
20459;DHT22;10388;52.314;7.938;2022-12-13T00:14:45;-5.20;99.90
20459;DHT22;10388;52.314;7.938;2022-12-13T00:17:16;-5.30;99.90
20459;DHT22;10388;52.314;7.938;2022-12-13T00:19:46;-5.30;99.90
20459;DHT22;10388;52.314;7.938;2022-12-13T00:22:17;-5.30;99.90
20459;DHT22;10388;52.314;7.938;2022-12-13T00:24:47;-5.30;99.90
20459;DHT22;10388;52.314;7.938;2022-12-13T00:27:18;-5.30;99.90
20459;DHT22;10388;52.314;7.938;2022-12-13T00:29:49;-5.30;99.90
20459;DHT22;10388;52.314;7.938;2022-12-13T00:32:19;-5.30;99.90
20459;DHT22;10388;52.314;7.938;2022-12-13T00:34:50;-5.40;99.90
20459;DHT22;10388;52.314;7.938;2022-12-13T00:37:20;-5.30;99.90
20459;DHT22;10388;52.314;7.938;2022-12-13T00:39:51;-5.40;99.90
20459;DHT22;10388;52.314;7.938;2022-12-13T00:42:21;-5.40;99.90
20459;DHT22;10388;52.314;7.938;2022-12-13T00:44:52;-5.40;99.90
20459;DHT22;10388;52.314;7.938;2022-12-13T00:47:23;-5.40;99.90
20459;DHT22;10388;52.314;7.938;2022-12-13T00:49:53;-5.40;99.90
20459;DHT22;10388;52.314;7.938;2022-12-13T00:52:24;-5.50;99.90
20459;DHT22;10388;52.314;7.938;2022-12-13T00:54:54;-5.50;99.90
20459;DHT22;10388;52.314;7.938;2022-12-13T00:57:26;-5.50;99.90
20459;DHT22;10388;52.314;7.938;2022-12-13T00:59:56;-5.50;99.90
20459;DHT22;10388;52.314;7.938;2022-12-13T01:50:35;-5.80;99.90
20459;DHT22;10388;52.314;7.938;2022-12-13T01:53:15;-5.80;99.90
20459;DHT22;10388;52.314;7.938;2022-12-13T01:55:50;-5.80;99.90
20459;DHT22;10388;52.314;7.938;2022-12-13T01:58:22;-5.80;99.90
20459;DHT22;10388;52.314;7.938;2022-12-13T02:00:53;-5.80;99.90
20459;DHT22;10388;52.314;7.938;2022-12-13T02:03:24;-5.80;99.90
20459;DHT22;10388;52.314;7.938;2022-12-13T02:08:25;-5.70;99.90
20459;DHT22;10388;52.314;7.938;2022-12-13T02:10:56;-5.70;99.90
20459;DHT22;10388;52.314;7.938;2022-12-13T02:13:27;-5.80;99.90
20459;DHT22;10388;52.314;7.938;2022-12-13T02:31:22;-5.70;99.90
20459;DHT22;10388;52.314;7.938;2022-12-13T02:33:56;-5.80;99.90
20459;DHT22;10388;52.314;7.938;2022-12-13T02:36:43;-5.80;99.90
20459;DHT22;10388;52.314;7.938;2022-12-13T02:39:29;-5.80;99.90
20459;DHT22;10388;52.314;7.938;2022-12-13T02:42:06;-5.80;99.90
20459;DHT22;10388;52.314;7.938;2022-12-13T02:44:47;-5.80;99.90
20459;DHT22;10388;52.314;7.938;2022-12-13T02:47:23;-5.80;99.90
20459;DHT22;10388;52.314;7.938;2022-12-13T02:49:57;-5.80;99.90
20459;DHT22;10388;52.314;7.938;2022-12-13T02:52:30;-5.90;99.90
20459;DHT22;10388;52.314;7.938;2022-12-13T02:55:06;-5.90;99.90
20459;DHT22;10388;52.314;7.938;2022-12-13T02:57:40;-5.90;99.90
20459;DHT22;10388;52.314;7.938;2022-12-13T03:00:16;-5.90;99.90
20459;DHT22;10388;52.314;7.938;2022-12-13T03:03:06;-5.90;99.90
20459;DHT22;10388;52.314;7.938;2022-12-13T03:06:05;-5.90;99.90
20459;DHT22;10388;52.314;7.938;2022-12-13T03:15:15;-6.10;99.90
20459;DHT22;10388;52.314;7.938;2022-12-13T03:17:54;-6.10;99.90
20459;DHT22;10388;52.314;7.938;2022-12-13T03:20:27;-6.10;99.90
20459;DHT22;10388;52.314;7.938;2022-12-13T03:23:00;-6.00;99.90
20459;DHT22;10388;52.314;7.938;2022-12-13T03:32:49;-6.20;99.90
20459;DHT22;10388;52.314;7.938;2022-12-13T03:35:20;-6.20;99.90
20459;DHT22;10388;52.314;7.938;2022-12-13T03:37:50;-6.20;99.90
20459;DHT22;10388;52.314;7.938;2022-12-13T03:40:21;-6.20;99.90
20459;DHT22;10388;52.314;7.938;2022-12-13T03:42:52;-6.30;99.90
20459;DHT22;10388;52.314;7.938;2022-12-13T03:45:23;-6.30;99.90
20459;DHT22;10388;52.314;7.938;2022-12-13T03:47:53;-6.30;99.90
20459;DHT22;10388;52.314;7.938;2022-12-13T03:50:24;-6.30;99.90
20459;DHT22;10388;52.314;7.938;2022-12-13T03:53:01;-6.30;99.90
20459;DHT22;10388;52.314;7.938;2022-12-13T03:55:33;-6.30;99.90
20459;DHT22;10388;52.314;7.938;2022-12-13T03:58:03;-6.40;99.90
20459;DHT22;10388;52.314;7.938;2022-12-13T04:00:34;-6.40;99.90
20459;DHT22;10388;52.314;7.938;2022-12-13T04:03:05;-6.40;99.90
20459;DHT22;10388;52.314;7.938;2022-12-13T04:05:35;-6.40;99.90
20459;DHT22;10388;52.314;7.938;2022-12-13T04:08:06;-6.40;99.90
20459;DHT22;10388;52.314;7.938;2022-12-13T04:10:37;-6.40;99.90
20459;DHT22;10388;52.314;7.938;2022-12-13T04:13:09;-6.40;99.90
20459;DHT22;10388;52.314;7.938;2022-12-13T04:15:59;-6.40;99.90
20459;DHT22;10388;52.314;7.938;2022-12-13T04:19:15;-6.40;99.90
20459;DHT22;10388;52.314;7.938;2022-12-13T04:21:45;-6.40;99.90
20459;DHT22;10388;52.314;7.938;2022-12-13T04:24:16;-6.50;99.90
20459;DHT22;10388;52.314;7.938;2022-12-13T04:26:47;-6.40;99.90
20459;DHT22;10388;52.314;7.938;2022-12-13T04:29:17;-6.50;99.90
20459;DHT22;10388;52.314;7.938;2022-12-13T04:31:48;-6.50;99.90
20459;DHT22;10388;52.314;7.938;2022-12-13T04:34:19;-6.40;99.90
20459;DHT22;10388;52.314;7.938;2022-12-13T04:36:49;-6.40;99.90
20459;DHT22;10388;52.314;7.938;2022-12-13T04:39:20;-6.40;99.90
20459;DHT22;10388;52.314;7.938;2022-12-13T04:41:51;-6.40;99.90
20459;DHT22;10388;52.314;7.938;2022-12-13T04:44:22;-6.40;99.90
20459;DHT22;10388;52.314;7.938;2022-12-13T04:46:52;-6.40;99.90
20459;DHT22;10388;52.314;7.938;2022-12-13T04:49:23;-6.40;99.90
20459;DHT22;10388;52.314;7.938;2022-12-13T04:51:53;-6.50;99.90
20459;DHT22;10388;52.314;7.938;2022-12-13T04:54:24;-6.40;99.90
20459;DHT22;10388;52.314;7.938;2022-12-13T04:56:55;-6.40;99.90
20459;DHT22;10388;52.314;7.938;2022-12-13T04:59:25;-6.50;99.90
20459;DHT22;10388;52.314;7.938;2022-12-13T05:01:56;-6.40;99.90
20459;DHT22;10388;52.314;7.938;2022-12-13T05:04:26;-6.50;99.90
20459;DHT22;10388;52.314;7.938;2022-12-13T05:06:57;-6.50;99.90
20459;DHT22;10388;52.314;7.938;2022-12-13T05:09:28;-6.50;99.90
20459;DHT22;10388;52.314;7.938;2022-12-13T05:12:05;-6.50;99.90
20459;DHT22;10388;52.314;7.938;2022-12-13T05:14:35;-6.50;99.90
20459;DHT22;10388;52.314;7.938;2022-12-13T05:17:06;-6.60;99.90
20459;DHT22;10388;52.314;7.938;2022-12-13T05:19:36;-6.60;99.90
20459;DHT22;10388;52.314;7.938;2022-12-13T05:22:08;-6.60;99.90
20459;DHT22;10388;52.314;7.938;2022-12-13T05:24:44;-6.60;99.90
20459;DHT22;10388;52.314;7.938;2022-12-13T05:27:15;-6.60;99.90
20459;DHT22;10388;52.314;7.938;2022-12-13T05:29:46;-6.70;99.90
20459;DHT22;10388;52.314;7.938;2022-12-13T05:32:19;-6.70;99.90
20459;DHT22;10388;52.314;7.938;2022-12-13T05:34:50;-6.70;99.90
20459;DHT22;10388;52.314;7.938;2022-12-13T05:37:21;-6.70;99.90
20459;DHT22;10388;52.314;7.938;2022-12-13T05:39:51;-6.70;99.90
20459;DHT22;10388;52.314;7.938;2022-12-13T05:42:22;-6.70;99.90
20459;DHT22;10388;52.314;7.938;2022-12-13T05:44:52;-6.80;99.90
20459;DHT22;10388;52.314;7.938;2022-12-13T05:47:23;-6.80;99.90
20459;DHT22;10388;52.314;7.938;2022-12-13T05:49:54;-6.80;99.90
20459;DHT22;10388;52.314;7.938;2022-12-13T05:52:24;-6.80;99.90
20459;DHT22;10388;52.314;7.938;2022-12-13T05:54:55;-6.80;99.90
20459;DHT22;10388;52.314;7.938;2022-12-13T05:57:26;-6.80;99.90
20459;DHT22;10388;52.314;7.938;2022-12-13T05:59:57;-6.80;99.90
20459;DHT22;10388;52.314;7.938;2022-12-13T06:02:28;-6.80;99.90
20459;DHT22;10388;52.314;7.938;2022-12-13T06:04:58;-6.90;99.90
20459;DHT22;10388;52.314;7.938;2022-12-13T06:07:29;-6.80;99.90
20459;DHT22;10388;52.314;7.938;2022-12-13T06:09:59;-6.90;99.90
20459;DHT22;10388;52.314;7.938;2022-12-13T06:12:30;-6.80;99.90
20459;DHT22;10388;52.314;7.938;2022-12-13T06:15:01;-6.80;99.90
20459;DHT22;10388;52.314;7.938;2022-12-13T06:17:33;-6.80;99.90
20459;DHT22;10388;52.314;7.938;2022-12-13T06:20:05;-6.80;99.90
20459;DHT22;10388;52.314;7.938;2022-12-13T06:22:35;-6.80;99.90
20459;DHT22;10388;52.314;7.938;2022-12-13T06:25:06;-6.80;99.90
20459;DHT22;10388;52.314;7.938;2022-12-13T06:27:37;-6.80;99.90
20459;DHT22;10388;52.314;7.938;2022-12-13T06:30:08;-6.80;99.90
20459;DHT22;10388;52.314;7.938;2022-12-13T06:32:39;-6.90;99.90
20459;DHT22;10388;52.314;7.938;2022-12-13T06:35:09;-6.90;99.90
20459;DHT22;10388;52.314;7.938;2022-12-13T06:37:43;-6.80;99.90
20459;DHT22;10388;52.314;7.938;2022-12-13T06:40:13;-6.80;99.90
20459;DHT22;10388;52.314;7.938;2022-12-13T06:42:44;-6.80;99.90
20459;DHT22;10388;52.314;7.938;2022-12-13T06:45:15;-6.80;99.90
20459;DHT22;10388;52.314;7.938;2022-12-13T06:47:45;-6.80;99.90
20459;DHT22;10388;52.314;7.938;2022-12-13T06:50:16;-6.80;99.90
20459;DHT22;10388;52.314;7.938;2022-12-13T06:52:47;-6.80;99.90
20459;DHT22;10388;52.314;7.938;2022-12-13T06:55:18;-6.90;99.90
20459;DHT22;10388;52.314;7.938;2022-12-13T06:57:50;-6.90;99.90
20459;DHT22;10388;52.314;7.938;2022-12-13T07:00:24;-6.90;99.90
20459;DHT22;10388;52.314;7.938;2022-12-13T07:02:55;-6.90;99.90
20459;DHT22;10388;52.314;7.938;2022-12-13T07:05:26;-6.90;99.90
20459;DHT22;10388;52.314;7.938;2022-12-13T07:07:56;-6.90;99.90
20459;DHT22;10388;52.314;7.938;2022-12-13T07:10:27;-6.90;99.90
20459;DHT22;10388;52.314;7.938;2022-12-13T07:12:58;-6.90;99.90
20459;DHT22;10388;52.314;7.938;2022-12-13T07:15:28;-6.90;99.90
20459;DHT22;10388;52.314;7.938;2022-12-13T07:18:02;-6.90;99.90
20459;DHT22;10388;52.314;7.938;2022-12-13T07:20:32;-6.90;99.90
20459;DHT22;10388;52.314;7.938;2022-12-13T07:23:03;-6.90;99.90
20459;DHT22;10388;52.314;7.938;2022-12-13T07:25:34;-6.90;99.90
20459;DHT22;10388;52.314;7.938;2022-12-13T07:28:07;-6.90;99.90
20459;DHT22;10388;52.314;7.938;2022-12-13T07:30:38;-7.00;99.90
20459;DHT22;10388;52.314;7.938;2022-12-13T07:33:09;-7.00;99.90
20459;DHT22;10388;52.314;7.938;2022-12-13T07:35:40;-7.00;99.90
20459;DHT22;10388;52.314;7.938;2022-12-13T07:38:11;-7.00;99.90
20459;DHT22;10388;52.314;7.938;2022-12-13T07:40:41;-7.00;99.90
20459;DHT22;10388;52.314;7.938;2022-12-13T07:43:12;-7.00;99.90
20459;DHT22;10388;52.314;7.938;2022-12-13T07:45:42;-7.00;99.90
20459;DHT22;10388;52.314;7.938;2022-12-13T07:48:13;-7.00;99.90
20459;DHT22;10388;52.314;7.938;2022-12-13T07:50:44;-7.00;99.90
20459;DHT22;10388;52.314;7.938;2022-12-13T07:53:15;-7.00;99.90
20459;DHT22;10388;52.314;7.938;2022-12-13T07:55:45;-7.00;99.90
20459;DHT22;10388;52.314;7.938;2022-12-13T07:58:16;-6.90;99.90
20459;DHT22;10388;52.314;7.938;2022-12-13T08:00:47;-6.90;99.90
20459;DHT22;10388;52.314;7.938;2022-12-13T08:03:17;-6.90;99.90
20459;DHT22;10388;52.314;7.938;2022-12-13T08:05:48;-6.90;99.90
20459;DHT22;10388;52.314;7.938;2022-12-13T08:08:18;-6.90;99.90
20459;DHT22;10388;52.314;7.938;2022-12-13T08:10:49;-6.80;99.90
20459;DHT22;10388;52.314;7.938;2022-12-13T08:13:20;-6.80;99.90
20459;DHT22;10388;52.314;7.938;2022-12-13T08:15:56;-6.80;99.90
20459;DHT22;10388;52.314;7.938;2022-12-13T08:18:28;-6.80;99.90
20459;DHT22;10388;52.314;7.938;2022-12-13T08:21:00;-6.70;99.90
20459;DHT22;10388;52.314;7.938;2022-12-13T08:23:32;-6.70;99.90
20459;DHT22;10388;52.314;7.938;2022-12-13T08:26:04;-6.70;99.90
20459;DHT22;10388;52.314;7.938;2022-12-13T08:28:35;-6.70;99.90
20459;DHT22;10388;52.314;7.938;2022-12-13T08:31:09;-6.60;99.90
20459;DHT22;10388;52.314;7.938;2022-12-13T08:33:41;-6.40;99.90
20459;DHT22;10388;52.314;7.938;2022-12-13T08:36:15;-6.40;99.90
20459;DHT22;10388;52.314;7.938;2022-12-13T08:38:47;-6.40;99.90
20459;DHT22;10388;52.314;7.938;2022-12-13T08:41:17;-6.30;99.90
20459;DHT22;10388;52.314;7.938;2022-12-13T08:43:48;-6.20;99.90
20459;DHT22;10388;52.314;7.938;2022-12-13T08:46:18;-6.20;99.90
20459;DHT22;10388;52.314;7.938;2022-12-13T08:48:52;-6.10;99.90
20459;DHT22;10388;52.314;7.938;2022-12-13T08:51:23;-6.10;99.90
20459;DHT22;10388;52.314;7.938;2022-12-13T08:53:54;-6.00;99.90
20459;DHT22;10388;52.314;7.938;2022-12-13T08:56:24;-6.00;99.90
20459;DHT22;10388;52.314;7.938;2022-12-13T08:58:55;-5.90;99.90
20459;DHT22;10388;52.314;7.938;2022-12-13T09:01:25;-5.70;99.90
20459;DHT22;10388;52.314;7.938;2022-12-13T09:03:56;-5.70;99.90
20459;DHT22;10388;52.314;7.938;2022-12-13T09:06:26;-5.60;99.90
20459;DHT22;10388;52.314;7.938;2022-12-13T09:08:57;-5.60;99.90
20459;DHT22;10388;52.314;7.938;2022-12-13T09:11:28;-5.50;99.90
20459;DHT22;10388;52.314;7.938;2022-12-13T09:13:58;-5.50;99.90
20459;DHT22;10388;52.314;7.938;2022-12-13T09:16:29;-5.40;99.90
20459;DHT22;10388;52.314;7.938;2022-12-13T09:18:59;-5.30;99.90
20459;DHT22;10388;52.314;7.938;2022-12-13T09:21:30;-5.30;99.90
20459;DHT22;10388;52.314;7.938;2022-12-13T09:24:01;-5.20;99.90
20459;DHT22;10388;52.314;7.938;2022-12-13T09:26:31;-5.10;99.90
20459;DHT22;10388;52.314;7.938;2022-12-13T09:29:02;-5.00;99.90
20459;DHT22;10388;52.314;7.938;2022-12-13T09:31:32;-5.10;99.90
20459;DHT22;10388;52.314;7.938;2022-12-13T09:34:05;-5.00;99.90
20459;DHT22;10388;52.314;7.938;2022-12-13T09:36:36;-5.00;99.90
20459;DHT22;10388;52.314;7.938;2022-12-13T09:39:07;-4.80;99.90
20459;DHT22;10388;52.314;7.938;2022-12-13T09:41:44;-4.80;99.90
20459;DHT22;10388;52.314;7.938;2022-12-13T09:44:23;-4.70;99.90
20459;DHT22;10388;52.314;7.938;2022-12-13T09:46:57;-4.70;99.90
20459;DHT22;10388;52.314;7.938;2022-12-13T09:49:40;-4.50;99.90
20459;DHT22;10388;52.314;7.938;2022-12-13T09:52:14;-4.50;99.90
20459;DHT22;10388;52.314;7.938;2022-12-13T09:54:50;-4.40;99.90
20459;DHT22;10388;52.314;7.938;2022-12-13T09:57:30;-4.40;99.90
20459;DHT22;10388;52.314;7.938;2022-12-13T10:00:04;-4.40;99.90
20459;DHT22;10388;52.314;7.938;2022-12-13T10:02:45;-4.30;99.90
20459;DHT22;10388;52.314;7.938;2022-12-13T10:05:27;-4.30;99.90
20459;DHT22;10388;52.314;7.938;2022-12-13T10:08:03;-4.20;99.90
20459;DHT22;10388;52.314;7.938;2022-12-13T10:10:35;-4.10;99.90
20459;DHT22;10388;52.314;7.938;2022-12-13T10:13:18;-4.00;99.90
20459;DHT22;10388;52.314;7.938;2022-12-13T10:15:53;-4.00;99.90
20459;DHT22;10388;52.314;7.938;2022-12-13T10:18:34;-3.90;99.90
20459;DHT22;10388;52.314;7.938;2022-12-13T10:21:17;-3.80;99.90
20459;DHT22;10388;52.314;7.938;2022-12-13T10:23:49;-3.80;99.90
20459;DHT22;10388;52.314;7.938;2022-12-13T10:26:20;-3.70;99.90
20459;DHT22;10388;52.314;7.938;2022-12-13T10:29:02;-3.60;99.90
20459;DHT22;10388;52.314;7.938;2022-12-13T10:31:50;-3.50;99.90
20459;DHT22;10388;52.314;7.938;2022-12-13T10:34:27;-3.40;99.90
20459;DHT22;10388;52.314;7.938;2022-12-13T10:36:58;-3.40;99.90
20459;DHT22;10388;52.314;7.938;2022-12-13T10:39:37;-3.30;99.90
20459;DHT22;10388;52.314;7.938;2022-12-13T10:42:14;-3.30;99.90
20459;DHT22;10388;52.314;7.938;2022-12-13T10:44:45;-3.20;99.90
20459;DHT22;10388;52.314;7.938;2022-12-13T10:50:00;-3.00;99.90
20459;DHT22;10388;52.314;7.938;2022-12-13T10:52:33;-3.00;99.90
20459;DHT22;10388;52.314;7.938;2022-12-13T10:55:29;-3.00;99.90
20459;DHT22;10388;52.314;7.938;2022-12-13T10:58:04;-2.90;99.90
20459;DHT22;10388;52.314;7.938;2022-12-13T11:00:41;-2.80;99.90
20459;DHT22;10388;52.314;7.938;2022-12-13T11:03:31;-2.80;99.90
20459;DHT22;10388;52.314;7.938;2022-12-13T11:06:13;-2.70;99.90
20459;DHT22;10388;52.314;7.938;2022-12-13T11:08:44;-2.70;99.90
20459;DHT22;10388;52.314;7.938;2022-12-13T11:11:16;-2.60;99.90
20459;DHT22;10388;52.314;7.938;2022-12-13T11:13:52;-2.50;99.90
20459;DHT22;10388;52.314;7.938;2022-12-13T11:16:29;-2.40;99.90
20459;DHT22;10388;52.314;7.938;2022-12-13T11:19:23;-2.40;99.90
20459;DHT22;10388;52.314;7.938;2022-12-13T11:21:55;-2.30;99.90
20459;DHT22;10388;52.314;7.938;2022-12-13T11:24:35;-2.30;99.90
20459;DHT22;10388;52.314;7.938;2022-12-13T11:30:20;-2.20;99.90
20459;DHT22;10388;52.314;7.938;2022-12-13T11:39:02;-2.00;99.90
20459;DHT22;10388;52.314;7.938;2022-12-13T11:41:41;-1.90;99.90
20459;DHT22;10388;52.314;7.938;2022-12-13T11:44:21;-1.90;99.90
20459;DHT22;10388;52.314;7.938;2022-12-13T11:46:55;-1.80;99.90
20459;DHT22;10388;52.314;7.938;2022-12-13T11:49:38;-1.70;99.90
20459;DHT22;10388;52.314;7.938;2022-12-13T11:52:34;-1.70;99.90
20459;DHT22;10388;52.314;7.938;2022-12-13T11:55:15;-1.70;99.90
20459;DHT22;10388;52.314;7.938;2022-12-13T11:58:04;-1.60;99.90
20459;DHT22;10388;52.314;7.938;2022-12-13T12:00:40;-1.60;99.90
20459;DHT22;10388;52.314;7.938;2022-12-13T12:05:54;-1.50;99.90
20459;DHT22;10388;52.314;7.938;2022-12-13T12:08:56;-1.40;99.90
20459;DHT22;10388;52.314;7.938;2022-12-13T12:11:50;-1.40;99.90
20459;DHT22;10388;52.314;7.938;2022-12-13T12:14:42;-1.40;99.90
20459;DHT22;10388;52.314;7.938;2022-12-13T12:17:22;-1.30;99.90
20459;DHT22;10388;52.314;7.938;2022-12-13T12:19:56;-1.30;99.90
20459;DHT22;10388;52.314;7.938;2022-12-13T12:22:38;-1.20;99.90
20459;DHT22;10388;52.314;7.938;2022-12-13T12:25:29;-1.20;99.90
20459;DHT22;10388;52.314;7.938;2022-12-13T12:31:04;-1.10;99.90
20459;DHT22;10388;52.314;7.938;2022-12-13T12:39:54;-1.00;99.90
20459;DHT22;10388;52.314;7.938;2022-12-13T12:42:45;-0.90;99.90
20459;DHT22;10388;52.314;7.938;2022-12-13T12:45:25;-0.90;99.90
20459;DHT22;10388;52.314;7.938;2022-12-13T12:51:38;-0.90;99.90
20459;DHT22;10388;52.314;7.938;2022-12-13T12:54:28;-0.80;99.90
20459;DHT22;10388;52.314;7.938;2022-12-13T13:02:45;-0.80;99.90
20459;DHT22;10388;52.314;7.938;2022-12-13T13:05:46;-0.80;99.90
20459;DHT22;10388;52.314;7.938;2022-12-13T13:08:22;-0.70;99.90
20459;DHT22;10388;52.314;7.938;2022-12-13T13:10:55;-0.70;99.90
20459;DHT22;10388;52.314;7.938;2022-12-13T13:13:43;-0.70;99.90
20459;DHT22;10388;52.314;7.938;2022-12-13T13:16:29;-0.70;99.90
20459;DHT22;10388;52.314;7.938;2022-12-13T13:19:04;-0.70;99.90
20459;DHT22;10388;52.314;7.938;2022-12-13T13:24:23;-0.70;99.90
20459;DHT22;10388;52.314;7.938;2022-12-13T13:27:39;-0.70;99.90
20459;DHT22;10388;52.314;7.938;2022-12-13T13:29:49;-0.70;99.90
20459;DHT22;10388;52.314;7.938;2022-12-13T13:32:26;-0.70;99.90
20459;DHT22;10388;52.314;7.938;2022-12-13T13:37:55;-0.80;99.90
20459;DHT22;10388;52.314;7.938;2022-12-13T13:51:34;-0.90;99.90
20459;DHT22;10388;52.314;7.938;2022-12-13T13:57:48;-0.90;99.90
20459;DHT22;10388;52.314;7.938;2022-12-13T14:29:57;-1.30;99.90
20459;DHT22;10388;52.314;7.938;2022-12-13T14:32:30;-1.40;99.90
20459;DHT22;10388;52.314;7.938;2022-12-13T14:35:02;-1.40;99.90
20459;DHT22;10388;52.314;7.938;2022-12-13T14:37:34;-1.40;99.90
20459;DHT22;10388;52.314;7.938;2022-12-13T14:40:49;-1.40;99.90
20459;DHT22;10388;52.314;7.938;2022-12-13T14:43:33;-1.50;99.90
20459;DHT22;10388;52.314;7.938;2022-12-13T14:46:06;-1.60;99.90
20459;DHT22;10388;52.314;7.938;2022-12-13T14:48:44;-1.70;99.90
20459;DHT22;10388;52.314;7.938;2022-12-13T14:51:31;-1.70;99.90
20459;DHT22;10388;52.314;7.938;2022-12-13T14:54:04;-1.80;99.90
20459;DHT22;10388;52.314;7.938;2022-12-13T14:56:53;-1.80;99.90
20459;DHT22;10388;52.314;7.938;2022-12-13T14:59:24;-1.90;99.90
20459;DHT22;10388;52.314;7.938;2022-12-13T15:02:00;-2.00;99.90
20459;DHT22;10388;52.314;7.938;2022-12-13T15:04:33;-2.00;99.90
20459;DHT22;10388;52.314;7.938;2022-12-13T15:07:06;-2.10;99.90
20459;DHT22;10388;52.314;7.938;2022-12-13T15:09:40;-2.10;99.90
20459;DHT22;10388;52.314;7.938;2022-12-13T15:12:16;-2.20;99.90
20459;DHT22;10388;52.314;7.938;2022-12-13T15:14:54;-2.20;99.90
20459;DHT22;10388;52.314;7.938;2022-12-13T15:17:29;-2.20;99.90
20459;DHT22;10388;52.314;7.938;2022-12-13T15:20:21;-2.20;99.90
20459;DHT22;10388;52.314;7.938;2022-12-13T15:22:57;-2.20;99.90
20459;DHT22;10388;52.314;7.938;2022-12-13T15:25:31;-2.30;99.90
20459;DHT22;10388;52.314;7.938;2022-12-13T15:28:03;-2.40;99.90
20459;DHT22;10388;52.314;7.938;2022-12-13T15:30:34;-2.40;99.90
20459;DHT22;10388;52.314;7.938;2022-12-13T15:33:26;-2.40;99.90
20459;DHT22;10388;52.314;7.938;2022-12-13T15:36:11;-2.50;99.90
20459;DHT22;10388;52.314;7.938;2022-12-13T15:41:34;-2.60;99.90
20459;DHT22;10388;52.314;7.938;2022-12-13T15:46:46;-2.60;99.90
20459;DHT22;10388;52.314;7.938;2022-12-13T15:49:29;-2.70;99.90
20459;DHT22;10388;52.314;7.938;2022-12-13T15:52:06;-2.80;99.90
20459;DHT22;10388;52.314;7.938;2022-12-13T15:57:51;-2.90;99.90
20459;DHT22;10388;52.314;7.938;2022-12-13T16:00:26;-2.90;99.90
20459;DHT22;10388;52.314;7.938;2022-12-13T16:05:35;-3.00;99.90
20459;DHT22;10388;52.314;7.938;2022-12-13T16:08:14;-3.10;99.90
20459;DHT22;10388;52.314;7.938;2022-12-13T16:10:49;-3.10;99.90
20459;DHT22;10388;52.314;7.938;2022-12-13T16:13:32;-3.20;99.90
20459;DHT22;10388;52.314;7.938;2022-12-13T16:18:58;-3.30;99.90
20459;DHT22;10388;52.314;7.938;2022-12-13T16:21:29;-3.40;99.90
20459;DHT22;10388;52.314;7.938;2022-12-13T16:23:59;-3.40;99.90
20459;DHT22;10388;52.314;7.938;2022-12-13T16:26:30;-3.40;99.90
20459;DHT22;10388;52.314;7.938;2022-12-13T16:29:07;-3.40;99.90
20459;DHT22;10388;52.314;7.938;2022-12-13T16:31:39;-3.40;99.90
20459;DHT22;10388;52.314;7.938;2022-12-13T16:34:10;-3.50;99.90
20459;DHT22;10388;52.314;7.938;2022-12-13T16:36:41;-3.50;99.90
20459;DHT22;10388;52.314;7.938;2022-12-13T16:39:11;-3.60;99.90
20459;DHT22;10388;52.314;7.938;2022-12-13T16:41:43;-3.60;99.90
20459;DHT22;10388;52.314;7.938;2022-12-13T16:44:25;-3.70;99.90
20459;DHT22;10388;52.314;7.938;2022-12-13T16:46:58;-3.70;99.90
20459;DHT22;10388;52.314;7.938;2022-12-13T16:49:29;-3.70;99.90
20459;DHT22;10388;52.314;7.938;2022-12-13T16:52:00;-3.80;99.90
20459;DHT22;10388;52.314;7.938;2022-12-13T16:54:32;-3.80;99.90
20459;DHT22;10388;52.314;7.938;2022-12-13T16:57:03;-3.80;99.90
20459;DHT22;10388;52.314;7.938;2022-12-13T16:59:33;-3.80;99.90
20459;DHT22;10388;52.314;7.938;2022-12-13T17:02:04;-3.90;99.90
20459;DHT22;10388;52.314;7.938;2022-12-13T17:04:36;-3.90;99.90
20459;DHT22;10388;52.314;7.938;2022-12-13T17:07:08;-4.00;99.90
20459;DHT22;10388;52.314;7.938;2022-12-13T17:09:39;-4.00;99.90
20459;DHT22;10388;52.314;7.938;2022-12-13T17:12:11;-4.10;99.90
20459;DHT22;10388;52.314;7.938;2022-12-13T17:14:41;-4.10;99.90
20459;DHT22;10388;52.314;7.938;2022-12-13T17:17:12;-4.20;99.90
20459;DHT22;10388;52.314;7.938;2022-12-13T17:19:42;-4.20;99.90
20459;DHT22;10388;52.314;7.938;2022-12-13T17:22:13;-4.20;99.90
20459;DHT22;10388;52.314;7.938;2022-12-13T17:24:43;-4.30;99.90
20459;DHT22;10388;52.314;7.938;2022-12-13T17:27:14;-4.30;99.90
20459;DHT22;10388;52.314;7.938;2022-12-13T17:29:46;-4.30;99.90
20459;DHT22;10388;52.314;7.938;2022-12-13T17:32:17;-4.30;99.90
20459;DHT22;10388;52.314;7.938;2022-12-13T17:34:48;-4.40;99.90
20459;DHT22;10388;52.314;7.938;2022-12-13T17:37:19;-4.40;99.90
20459;DHT22;10388;52.314;7.938;2022-12-13T17:39:50;-4.40;99.90
20459;DHT22;10388;52.314;7.938;2022-12-13T17:42:20;-4.40;99.90
20459;DHT22;10388;52.314;7.938;2022-12-13T17:44:51;-4.50;99.90
20459;DHT22;10388;52.314;7.938;2022-12-13T17:47:21;-4.50;99.90
20459;DHT22;10388;52.314;7.938;2022-12-13T17:49:52;-4.50;99.90
20459;DHT22;10388;52.314;7.938;2022-12-13T17:52:22;-4.50;99.90
20459;DHT22;10388;52.314;7.938;2022-12-13T17:54:53;-4.60;99.90
20459;DHT22;10388;52.314;7.938;2022-12-13T17:57:23;-4.60;99.90
20459;DHT22;10388;52.314;7.938;2022-12-13T17:59:54;-4.60;99.90
20459;DHT22;10388;52.314;7.938;2022-12-13T18:02:24;-4.60;99.90
20459;DHT22;10388;52.314;7.938;2022-12-13T18:04:55;-4.60;99.90
20459;DHT22;10388;52.314;7.938;2022-12-13T18:07:26;-4.60;99.90
20459;DHT22;10388;52.314;7.938;2022-12-13T18:09:56;-4.60;99.90
20459;DHT22;10388;52.314;7.938;2022-12-13T18:12:27;-4.70;99.90
20459;DHT22;10388;52.314;7.938;2022-12-13T18:14:58;-4.70;99.90
20459;DHT22;10388;52.314;7.938;2022-12-13T18:17:28;-4.70;99.90
20459;DHT22;10388;52.314;7.938;2022-12-13T18:19:59;-4.50;99.90
20459;DHT22;10388;52.314;7.938;2022-12-13T18:22:30;-4.50;99.90
20459;DHT22;10388;52.314;7.938;2022-12-13T18:25:00;-4.50;99.90
20459;DHT22;10388;52.314;7.938;2022-12-13T18:27:31;-4.50;99.90
20459;DHT22;10388;52.314;7.938;2022-12-13T18:30:01;-4.40;99.90
20459;DHT22;10388;52.314;7.938;2022-12-13T18:32:32;-4.40;99.90
20459;DHT22;10388;52.314;7.938;2022-12-13T18:35:03;-4.50;99.90
20459;DHT22;10388;52.314;7.938;2022-12-13T18:37:33;-4.40;99.90
20459;DHT22;10388;52.314;7.938;2022-12-13T18:40:04;-4.50;99.90
20459;DHT22;10388;52.314;7.938;2022-12-13T18:42:35;-4.40;99.90
20459;DHT22;10388;52.314;7.938;2022-12-13T18:45:06;-4.50;99.90
20459;DHT22;10388;52.314;7.938;2022-12-13T18:47:37;-4.50;99.90
20459;DHT22;10388;52.314;7.938;2022-12-13T18:50:07;-4.50;99.90
20459;DHT22;10388;52.314;7.938;2022-12-13T18:52:38;-4.50;99.90
20459;DHT22;10388;52.314;7.938;2022-12-13T18:55:08;-4.50;99.90
20459;DHT22;10388;52.314;7.938;2022-12-13T18:57:39;-4.60;99.90
20459;DHT22;10388;52.314;7.938;2022-12-13T19:00:10;-4.50;99.90
20459;DHT22;10388;52.314;7.938;2022-12-13T19:02:41;-4.50;99.90
20459;DHT22;10388;52.314;7.938;2022-12-13T19:05:12;-4.50;99.90
20459;DHT22;10388;52.314;7.938;2022-12-13T19:07:42;-4.50;99.90
20459;DHT22;10388;52.314;7.938;2022-12-13T19:10:13;-4.50;99.90